Aérodrome :
LOGIN :

S'inscrire | Disclaimer

   EN    FR    IT 

 










Légende :    VFR   VFR Marginal   IFR   IFR Intensif   IFR Très Intensif
Visi : 
Plafond : 
>= 8 km
>= 3000ft
5 à 8 km
1000 à 3000 ft
1500m à 5 km
500 à 1000 ft
800 à 1500m
200 à 500 ft
< 800m
< 200 ft
Symboles :   Orages  Brouillard  Fortes neiges  Fortes précipitations  Vent > 20 kt
SIGMETs :   Divers  Orages  Givrage  Turbulence  Onde Orograph.  Cendres Volcan.






- Altitude de l'aérodrome : 364 ft
- Code IATA : FRA


EDDF - Frankfurt Int.

DERNIER METAR :
  • 100420Z 29013KT 9999 FEW020 04/00 Q1024 NOSIG

METARs EXPIRÉS :
  • 100350Z 28012KT 9999 FEW020 04/00 Q1024 NOSIG
  • 100320Z 27007KT 240V300 9999 FEW021 05/00 Q1023 NOSIG
  • 100250Z 29011KT 9999 FEW022 05/01 Q1022 NOSIG
  • 100220Z 30012KT 9999 FEW023 05/01 Q1022 NOSIG
  • 100150Z 29012KT 9999 FEW023 05/01 Q1021 NOSIG

TAF AMD TAF EDDF
Valide du 10 à 04h jusqu'au 11 à 06h UTC


100424Z 1004/1106 29011KT 9999 SCT030
BECMG 1006/1009 23007KT
BECMG 1017/1020 17007KT
BECMG 1102/1105 BKN030



MET'MAP, la Météo Aéronautique d'un coup d'oeil ! - Copyright ORBIFLY Décembre 2007 - Disclaimer

ORBIFLY MET'MAP TEAM :

Programmation & Développement : Alexandra Zaïnal
Sur une idée originale de : Baudouin d'Aumeries
Assistance à la programmation : Marc-Olivier Méhu
Soutien technique & logistique : Manuel Goepfert

Contact : metmap@orbifly.com




SOURCES & CREDITS :

   NOAA